Time;durP1;ratioP1;P1;durP2;ratioP2;P2;SDS_P1;SDS_P2;PMS_P1;PMS_P2;Temp;Humidity;BMP_temperature;BMP_pressure;BME280_temperature;BME280_humidity;BME280_pressure;Samples;Min_cycle;Max_cycle;Signal;HPM_P1;HPM_P2
2023/01/08 00:02:50;;;;;;;5.90;4.17;;;10.10;99.90;;;;;;10471677;28;20369;-69
2023/01/08 00:07:51;;;;;;;6.30;4.33;;;10.10;99.90;;;;;;10476489;28;20239;-70
2023/01/08 00:12:51;;;;;;;6.00;4.20;;;10.10;99.90;;;;;;10479061;28;20231;-70
2023/01/08 00:17:52;;;;;;;4.77;4.27;;;10.20;99.90;;;;;;10470639;28;20290;-70
2023/01/08 00:22:52;;;;;;;7.13;4.37;;;10.20;99.90;;;;;;10477612;28;20597;-67
2023/01/08 00:27:53;;;;;;;5.07;3.90;;;10.20;99.90;;;;;;10472097;28;20226;-69
2023/01/08 00:32:53;;;;;;;6.57;4.17;;;10.20;99.90;;;;;;10467148;28;20257;-68
2023/01/08 00:37:54;;;;;;;4.60;3.73;;;10.30;99.90;;;;;;10470324;28;20273;-69
2023/01/08 00:42:55;;;;;;;4.50;4.00;;;10.30;99.90;;;;;;10475703;28;20219;-69
2023/01/08 00:47:55;;;;;;;5.80;4.03;;;10.30;99.90;;;;;;10470140;28;20237;-69
2023/01/08 00:52:56;;;;;;;5.67;3.93;;;10.30;99.90;;;;;;10476575;28;20234;-68
2023/01/08 00:57:57;;;;;;;5.37;3.93;;;10.30;99.90;;;;;;10500757;28;20223;-68
2023/01/08 01:02:57;;;;;;;3.97;3.57;;;10.50;99.90;;;;;;10476008;28;20277;-69
2023/01/08 01:07:58;;;;;;;5.13;3.70;;;10.40;99.90;;;;;;10450930;28;20370;-69
2023/01/08 01:12:58;;;;;;;7.33;4.10;;;10.40;99.90;;;;;;10467453;28;20247;-70
2023/01/08 01:17:59;;;;;;;5.47;3.83;;;10.50;99.90;;;;;;10485601;28;20230;-70
2023/01/08 01:22:59;;;;;;;5.03;3.60;;;10.60;99.90;;;;;;10489548;28;20223;-70
2023/01/08 01:28:01;;;;;;;3.60;3.30;;;10.60;99.90;;;;;;10468854;28;20309;-70
2023/01/08 01:33:02;;;;;;;4.90;3.30;;;10.70;99.90;;;;;;10475267;28;20230;-70
2023/01/08 01:38:02;;;;;;;5.03;3.70;;;10.70;99.90;;;;;;10466083;28;20234;-71
2023/01/08 01:43:03;;;;;;;3.43;3.13;;;10.70;99.90;;;;;;10467271;28;20218;-69
2023/01/08 01:48:11;;;;;;;4.00;3.40;;;10.70;99.90;;;;;;10456353;28;20234;-69
2023/01/08 01:53:28;;;;;;;5.27;3.70;;;10.70;99.90;;;;;;10475313;28;20266;-69
2023/01/08 01:58:30;;;;;;;4.77;3.80;;;10.60;99.90;;;;;;10470065;28;20288;-68
2023/01/08 02:03:38;;;;;;;5.57;4.10;;;10.50;99.90;;;;;;10470858;28;20231;-68
2023/01/08 02:09:01;;;;;;;5.90;4.13;;;10.40;99.90;;;;;;10471476;28;20284;-68
2023/01/08 02:14:18;;;;;;;6.43;4.57;;;10.20;99.90;;;;;;10448268;28;20223;-69
2023/01/08 02:19:41;;;;;;;7.27;5.17;;;10.10;99.90;;;;;;10473353;28;20238;-68
2023/01/08 02:25:04;;;;;;;5.93;4.70;;;10.00;99.90;;;;;;10475098;28;20236;-71
2023/01/08 02:30:05;;;;;;;5.83;5.03;;;10.00;99.90;;;;;;10465902;28;20222;-72
2023/01/08 02:35:07;;;;;;;5.63;5.00;;;9.90;99.90;;;;;;10476404;28;20194;-71
2023/01/08 02:40:24;;;;;;;6.77;4.87;;;9.90;99.90;;;;;;10466303;28;20187;-71
2023/01/08 02:45:40;;;;;;;6.53;5.50;;;9.80;99.90;;;;;;10478322;28;20238;-71
2023/01/08 02:50:53;;;;;;;5.87;5.03;;;9.80;99.90;;;;;;10451960;28;20261;-71
2023/01/08 02:56:05;;;;;;;5.77;4.87;;;9.80;99.90;;;;;;10448031;28;20254;-70
2023/01/08 03:01:10;;;;;;;7.70;5.00;;;9.70;99.90;;;;;;10479011;28;20621;-70
2023/01/08 03:06:14;;;;;;;6.60;4.87;;;9.70;99.90;;;;;;10476302;28;20266;-70
2023/01/08 03:11:18;;;;;;;7.90;4.80;;;9.70;99.90;;;;;;10470296;28;20219;-70
2023/01/08 03:16:42;;;;;;;5.47;4.60;;;9.60;99.90;;;;;;10483098;28;20260;-69
2023/01/08 03:21:45;;;;;;;5.67;4.70;;;9.60;99.90;;;;;;10474152;28;20225;-69
2023/01/08 03:26:49;;;;;;;6.90;4.63;;;9.50;99.90;;;;;;10473794;28;20365;-70
2023/01/08 03:31:55;;;;;;;6.20;4.77;;;9.50;99.90;;;;;;10488427;28;20227;-71
2023/01/08 03:36:59;;;;;;;9.00;5.43;;;9.50;99.90;;;;;;10455611;28;20262;-72
2023/01/08 03:42:06;;;;;;;10.27;5.93;;;9.50;99.90;;;;;;10480682;28;20223;-69
2023/01/08 03:47:09;;;;;;;6.13;5.00;;;9.50;99.90;;;;;;10472196;28;20234;-71
2023/01/08 03:52:24;;;;;;;6.27;4.87;;;9.40;99.90;;;;;;10460421;28;20218;-71
2023/01/08 03:57:25;;;;;;;5.93;4.73;;;9.50;99.90;;;;;;10475110;28;20245;-72
2023/01/08 04:02:25;;;;;;;5.73;4.70;;;9.50;99.90;;;;;;10475460;28;20230;-70
2023/01/08 04:07:26;;;;;;;7.07;5.17;;;9.50;99.90;;;;;;10473667;28;20304;-70
2023/01/08 04:12:26;;;;;;;5.73;4.90;;;9.50;99.90;;;;;;10472551;28;20215;-69
2023/01/08 04:17:27;;;;;;;6.27;5.30;;;9.50;99.90;;;;;;10478871;28;20207;-69
2023/01/08 04:22:27;;;;;;;6.67;5.10;;;9.50;99.90;;;;;;10469158;28;20588;-69
2023/01/08 04:27:28;;;;;;;6.40;5.03;;;9.50;99.90;;;;;;10474041;28;20429;-70
2023/01/08 04:32:29;;;;;;;5.50;4.90;;;9.50;99.90;;;;;;10478330;28;20281;-73
2023/01/08 04:37:29;;;;;;;6.70;4.77;;;9.50;99.90;;;;;;10473675;28;20241;-72
2023/01/08 04:42:30;;;;;;;7.93;5.40;;;9.50;99.90;;;;;;10473119;28;20234;-70
2023/01/08 04:47:30;;;;;;;7.53;5.30;;;9.50;99.90;;;;;;10474994;28;20226;-69
2023/01/08 04:52:31;;;;;;;8.07;5.20;;;9.50;99.90;;;;;;10463270;28;20237;-70
2023/01/08 04:57:32;;;;;;;5.10;4.60;;;9.40;99.90;;;;;;10458866;28;20234;-72
2023/01/08 05:02:32;;;;;;;7.60;4.50;;;9.40;99.90;;;;;;10479678;28;20226;-72
2023/01/08 05:07:33;;;;;;;5.10;4.23;;;9.40;99.90;;;;;;10473715;28;20221;-70
2023/01/08 05:12:34;;;;;;;6.27;4.27;;;9.30;99.90;;;;;;10502773;28;20213;-70
2023/01/08 05:17:34;;;;;;;6.73;4.80;;;9.30;99.90;;;;;;10467104;28;20412;-73
2023/01/08 05:22:35;;;;;;;5.33;4.83;;;9.10;99.90;;;;;;10481647;28;20319;-70
2023/01/08 05:27:35;;;;;;;5.67;4.40;;;9.20;99.90;;;;;;10453651;28;20241;-72
2023/01/08 05:32:36;;;;;;;6.97;4.40;;;9.10;99.90;;;;;;10467919;28;20278;-69
2023/01/08 05:37:37;;;;;;;4.73;4.23;;;9.10;99.90;;;;;;10471895;28;20225;-70
2023/01/08 05:42:37;;;;;;;5.63;4.40;;;9.10;99.90;;;;;;10469468;28;20667;-71
2023/01/08 05:47:41;;;;;;;5.40;4.60;;;9.10;99.90;;;;;;10474638;28;20239;-71
2023/01/08 05:52:41;;;;;;;7.80;5.77;;;9.00;99.90;;;;;;10465890;28;20265;-71
2023/01/08 05:57:42;;;;;;;6.40;4.00;;;9.00;99.90;;;;;;10471481;28;20696;-70
2023/01/08 06:02:47;;;;;;;7.13;4.30;;;9.00;99.90;;;;;;10476811;28;20887;-70
2023/01/08 06:07:47;;;;;;;6.03;4.40;;;9.00;99.90;;;;;;10455525;28;20230;-69
2023/01/08 06:12:48;;;;;;;5.20;4.00;;;9.00;99.90;;;;;;10472969;28;20222;-70
2023/01/08 06:17:48;;;;;;;5.73;4.77;;;9.00;99.90;;;;;;10467439;28;20230;-71
2023/01/08 06:22:49;;;;;;;7.33;4.37;;;9.00;99.90;;;;;;10479992;28;20232;-70
2023/01/08 06:27:51;;;;;;;6.00;4.13;;;8.90;99.90;;;;;;10462705;28;20233;-71
2023/01/08 06:32:56;;;;;;;5.20;3.93;;;8.90;99.90;;;;;;10473422;28;20364;-70
2023/01/08 06:37:56;;;;;;;5.37;4.23;;;9.00;99.90;;;;;;10447648;28;20788;-70
2023/01/08 06:43:02;;;;;;;5.93;4.00;;;9.00;99.90;;;;;;10472424;28;20329;-70
2023/01/08 06:48:04;;;;;;;3.97;3.50;;;9.00;99.90;;;;;;10472429;28;20723;-72
2023/01/08 06:53:05;;;;;;;4.90;3.83;;;9.00;99.90;;;;;;10447413;28;20218;-70
2023/01/08 06:58:05;;;;;;;4.23;3.60;;;9.00;99.90;;;;;;10483236;28;20343;-71
2023/01/08 07:03:06;;;;;;;4.50;3.90;;;9.00;99.90;;;;;;10487672;28;20622;-69
2023/01/08 07:08:12;;;;;;;5.53;3.77;;;9.10;99.90;;;;;;10486589;28;20226;-70
2023/01/08 07:13:13;;;;;;;5.37;4.13;;;9.00;99.90;;;;;;10479967;28;20222;-70
2023/01/08 07:18:13;;;;;;;5.33;4.47;;;9.00;99.90;;;;;;10455507;28;20219;-71
2023/01/08 07:23:14;;;;;;;6.67;4.27;;;8.90;99.90;;;;;;10477857;28;20228;-69
2023/01/08 07:28:15;;;;;;;4.90;4.40;;;8.90;99.90;;;;;;10483289;28;20229;-70
2023/01/08 07:33:15;;;;;;;4.77;4.10;;;8.80;99.90;;;;;;10455368;28;20226;-71
2023/01/08 07:38:16;;;;;;;4.70;4.20;;;8.90;99.90;;;;;;10477353;28;20231;-71
2023/01/08 07:43:16;;;;;;;6.10;4.30;;;8.90;99.90;;;;;;10473106;28;20321;-70
2023/01/08 07:48:17;;;;;;;5.57;4.50;;;8.80;99.90;;;;;;10458758;28;20247;-69
2023/01/08 07:53:18;;;;;;;5.73;4.17;;;8.90;99.90;;;;;;10473277;28;20223;-70
2023/01/08 07:58:18;;;;;;;5.77;4.13;;;8.90;99.90;;;;;;10476373;28;20826;-69
2023/01/08 08:03:19;;;;;;;6.87;4.23;;;9.00;99.90;;;;;;10454689;28;20214;-73
2023/01/08 08:08:20;;;;;;;5.17;4.07;;;9.00;99.90;;;;;;10483966;28;20217;-71
2023/01/08 08:13:20;;;;;;;5.83;4.00;;;9.00;99.90;;;;;;10480782;28;20829;-71
2023/01/08 08:18:21;;;;;;;4.77;4.03;;;9.00;99.90;;;;;;10460253;28;20778;-70
2023/01/08 08:23:21;;;;;;;4.73;4.33;;;9.00;99.90;;;;;;10469103;28;20222;-70
2023/01/08 08:28:22;;;;;;;7.03;4.20;;;9.00;99.90;;;;;;10457874;28;20321;-72
2023/01/08 08:33:22;;;;;;;4.87;4.37;;;9.00;99.90;;;;;;10472772;28;20729;-71
2023/01/08 08:38:25;;;;;;;8.10;4.93;;;9.00;99.90;;;;;;10473181;28;20309;-73
2023/01/08 08:43:25;;;;;;;6.97;4.67;;;8.90;99.90;;;;;;10455351;28;20217;-72
2023/01/08 08:48:26;;;;;;;8.53;5.10;;;9.00;99.90;;;;;;10481560;28;20313;-71
2023/01/08 08:53:26;;;;;;;6.77;5.20;;;8.90;99.90;;;;;;10471855;28;20299;-70
2023/01/08 08:58:27;;;;;;;5.80;5.20;;;8.90;99.90;;;;;;10491201;28;20652;-71
2023/01/08 09:03:28;;;;;;;5.23;4.33;;;9.00;99.90;;;;;;10466500;28;20224;-72
2023/01/08 09:08:29;;;;;;;6.57;5.33;;;8.90;99.90;;;;;;10464451;28;20277;-72
2023/01/08 09:13:29;;;;;;;6.23;5.23;;;9.00;99.90;;;;;;10430797;28;20223;-74
2023/01/08 09:18:30;;;;;;;7.63;5.43;;;9.00;99.90;;;;;;10453448;28;20213;-73
2023/01/08 09:23:30;;;;;;;6.50;5.37;;;9.00;99.90;;;;;;10466235;28;20214;-71
2023/01/08 09:28:31;;;;;;;7.17;5.50;;;9.10;99.90;;;;;;10470561;28;20429;-72
2023/01/08 09:33:32;;;;;;;7.27;5.27;;;9.10;99.90;;;;;;10456761;28;20318;-71
2023/01/08 09:38:32;;;;;;;5.37;4.87;;;9.10;99.90;;;;;;10466055;28;20779;-74
2023/01/08 09:43:36;;;;;;;8.17;5.40;;;9.20;99.90;;;;;;10453722;28;20693;-75
2023/01/08 09:48:38;;;;;;;7.87;5.60;;;9.20;99.90;;;;;;10453381;28;20319;-74
2023/01/08 09:53:39;;;;;;;6.97;5.37;;;9.30;99.90;;;;;;10471387;28;20313;-73
2023/01/08 09:59:11;;;;;;;5.90;5.23;;;9.30;99.90;;;;;;10470381;28;20259;-73
2023/01/08 10:04:21;;;;;;;5.73;5.10;;;9.40;99.90;;;;;;10466316;28;20227;-75
2023/01/08 10:09:30;;;;;;;6.13;5.17;;;9.40;99.90;;;;;;10475838;28;20547;-74
2023/01/08 10:14:38;;;;;;;5.83;4.90;;;9.40;99.90;;;;;;10474277;28;20242;-73
2023/01/08 10:19:38;;;;;;;5.10;4.60;;;9.50;99.90;;;;;;10459371;28;20225;-72
2023/01/08 10:24:39;;;;;;;5.17;4.60;;;9.50;99.90;;;;;;10467889;28;20733;-72
2023/01/08 10:29:40;;;;;;;6.10;4.40;;;9.60;99.90;;;;;;10447756;28;20219;-74
2023/01/08 10:34:52;;;;;;;4.83;4.20;;;9.60;99.90;;;;;;10471174;28;20686;-73
2023/01/08 10:40:07;;;;;;;4.77;4.13;;;9.70;99.90;;;;;;10457235;28;20603;-74
2023/01/08 10:45:27;;;;;;;4.70;3.37;;;9.80;99.90;;;;;;10465656;28;20278;-73
2023/01/08 10:50:31;;;;;;;4.93;3.30;;;9.90;99.90;;;;;;10451983;28;20302;-74
2023/01/08 10:55:38;;;;;;;4.33;3.70;;;10.10;99.90;;;;;;10480591;28;20303;-74
2023/01/08 11:00:39;;;;;;;3.83;3.43;;;10.30;99.90;;;;;;10468438;28;20219;-73
2023/01/08 11:05:41;;;;;;;4.03;3.63;;;10.50;99.90;;;;;;10479629;28;20634;-73
2023/01/08 11:10:52;;;;;;;4.53;3.67;;;10.60;99.90;;;;;;10491454;28;20281;-73
2023/01/08 11:16:02;;;;;;;4.17;3.00;;;11.00;99.90;;;;;;10454293;28;20235;-73
2023/01/08 11:21:18;;;;;;;5.07;2.93;;;12.60;99.90;;;;;;10465157;28;20728;-73
2023/01/08 11:26:21;;;;;;;4.67;2.80;;;16.00;99.90;;;;;;10459770;28;20743;-71
2023/01/08 11:31:42;;;;;;;3.60;2.80;;;15.50;99.90;;;;;;10469487;28;20238;-72
2023/01/08 11:36:49;;;;;;;3.30;2.20;;;14.00;99.90;;;;;;10474497;28;20219;-72
2023/01/08 11:42:18;;;;;;;2.70;2.30;;;13.00;99.90;;;;;;10473704;28;20230;-71
2023/01/08 11:47:38;;;;;;;2.40;2.20;;;12.70;99.90;;;;;;10473945;28;20262;-72
2023/01/08 11:53:01;;;;;;;2.80;2.23;;;12.20;99.90;;;;;;10479221;28;20225;-72
2023/01/08 11:58:59;;;;;;;2.70;2.40;;;12.00;99.90;;;;;;10475096;28;20309;-73
2023/01/08 12:04:32;;;;;;;2.97;2.27;;;12.10;99.90;;;;;;10353361;28;20229;-73
2023/01/08 12:09:46;;;;;;;3.47;2.67;;;12.20;99.90;;;;;;10471707;28;20231;-72
2023/01/08 12:15:28;;;;;;;2.90;2.10;;;12.30;99.90;;;;;;10473378;28;20233;-73
2023/01/08 12:20:28;;;;;;;3.07;1.70;;;12.10;99.90;;;;;;10486903;28;20739;-72
2023/01/08 12:25:39;;;;;;;1.87;1.60;;;11.80;99.90;;;;;;10485617;28;20260;-72
2023/01/08 12:31:11;;;;;;;2.03;1.67;;;11.70;99.90;;;;;;10472221;28;20225;-72
2023/01/08 12:36:17;;;;;;;2.27;1.50;;;11.70;99.90;;;;;;10471290;28;20221;-74
2023/01/08 12:41:22;;;;;;;1.93;1.70;;;11.80;99.90;;;;;;10492636;28;20699;-72
2023/01/08 12:46:27;;;;;;;2.03;1.70;;;11.70;99.90;;;;;;10457215;28;20239;-73
2023/01/08 12:51:39;;;;;;;2.07;1.53;;;11.60;99.90;;;;;;10482813;28;20221;-72
2023/01/08 12:56:54;;;;;;;1.77;1.67;;;11.60;99.90;;;;;;10489424;28;20259;-75
2023/01/08 13:02:21;;;;;;;2.50;2.10;;;11.40;99.90;;;;;;10476374;28;20320;-73
2023/01/08 13:07:34;;;;;;;4.27;1.93;;;11.30;99.90;;;;;;10477059;28;20288;-73
2023/01/08 13:12:39;;;;;;;3.00;2.23;;;11.20;99.90;;;;;;10476264;28;20318;-72
2023/01/08 13:17:39;;;;;;;2.30;2.03;;;11.20;99.90;;;;;;10487261;28;20279;-71
2023/01/08 13:22:41;;;;;;;3.60;2.00;;;11.30;99.90;;;;;;10468878;28;20595;-72
2023/01/08 13:27:42;;;;;;;2.60;2.30;;;11.30;99.90;;;;;;10468787;28;20234;-72
2023/01/08 13:32:48;;;;;;;3.70;2.13;;;11.30;99.90;;;;;;10454542;28;20658;-71
2023/01/08 13:37:51;;;;;;;2.03;1.67;;;11.30;99.90;;;;;;10477316;28;20219;-72
2023/01/08 13:42:52;;;;;;;3.70;2.13;;;11.20;99.90;;;;;;10474508;28;20223;-72
2023/01/08 13:47:54;;;;;;;2.50;2.13;;;11.10;99.90;;;;;;10472013;28;20221;-72
2023/01/08 13:53:01;;;;;;;2.27;1.97;;;11.00;99.90;;;;;;10480740;28;20230;-71
2023/01/08 13:58:39;;;;;;;3.00;2.03;;;10.90;99.90;;;;;;10451548;28;20626;-73
2023/01/08 14:03:45;;;;;;;2.30;1.97;;;10.90;99.90;;;;;;10459631;28;20218;-73
2023/01/08 14:09:03;;;;;;;2.87;2.27;;;11.00;99.90;;;;;;10469949;28;20873;-73
2023/01/08 14:14:04;;;;;;;4.70;2.67;;;11.10;99.90;;;;;;10470913;28;20580;-73
2023/01/08 14:19:05;;;;;;;2.23;1.70;;;11.10;99.90;;;;;;10489518;28;20308;-73
2023/01/08 14:24:06;;;;;;;1.90;1.60;;;11.00;99.90;;;;;;10489632;28;20690;-72
2023/01/08 14:29:13;;;;;;;2.33;1.77;;;10.90;99.90;;;;;;10470314;28;20272;-75
2023/01/08 14:34:15;;;;;;;2.20;2.00;;;10.80;99.90;;;;;;10466699;28;20223;-70
2023/01/08 14:39:37;;;;;;;2.53;1.70;;;10.70;99.90;;;;;;10470965;28;20288;-72
2023/01/08 14:44:39;;;;;;;2.57;1.90;;;10.60;99.90;;;;;;10469297;28;20230;-66
2023/01/08 14:49:43;;;;;;;2.10;1.60;;;10.50;99.90;;;;;;10465596;28;20962;-66
2023/01/08 14:54:46;;;;;;;1.70;1.60;;;10.60;99.90;;;;;;10460527;28;20234;-68
2023/01/08 14:59:58;;;;;;;2.27;1.80;;;10.60;99.90;;;;;;10463819;28;20219;-66
2023/01/08 15:05:29;;;;;;;3.50;2.00;;;10.60;99.90;;;;;;10485731;28;20247;-66
2023/01/08 15:10:40;;;;;;;2.33;1.80;;;10.60;99.90;;;;;;10478874;28;20696;-71
2023/01/08 15:15:55;;;;;;;2.53;2.33;;;10.50;99.90;;;;;;10456497;28;20897;-70
2023/01/08 15:20:56;;;;;;;2.83;2.20;;;10.60;99.90;;;;;;10480648;28;20943;-71
2023/01/08 15:25:58;;;;;;;1.90;1.70;;;10.60;99.90;;;;;;10455132;28;20242;-70
2023/01/08 15:30:59;;;;;;;1.90;1.70;;;10.50;99.90;;;;;;10453212;28;20246;-70
2023/01/08 15:35:59;;;;;;;2.17;1.93;;;10.40;99.90;;;;;;10461918;28;20249;-71
2023/01/08 15:41:00;;;;;;;2.93;2.00;;;10.20;99.90;;;;;;10453110;28;20219;-70
2023/01/08 15:46:00;;;;;;;2.10;1.63;;;10.10;99.90;;;;;;10479705;28;20230;-71
2023/01/08 15:51:01;;;;;;;3.47;1.87;;;10.00;99.90;;;;;;10452225;28;20937;-74
2023/01/08 15:56:02;;;;;;;2.50;1.60;;;9.90;99.90;;;;;;10479246;28;20274;-71
2023/01/08 16:01:02;;;;;;;2.10;1.67;;;9.80;99.90;;;;;;10469955;28;20281;-71
2023/01/08 16:06:07;;;;;;;2.23;1.83;;;9.70;99.90;;;;;;10478060;28;20231;-72
2023/01/08 16:11:07;;;;;;;2.07;1.87;;;9.70;99.90;;;;;;10478386;28;20206;-72
2023/01/08 16:16:09;;;;;;;2.23;1.77;;;9.70;99.90;;;;;;10461418;28;20225;-71
2023/01/08 16:21:10;;;;;;;2.17;1.70;;;9.70;99.90;;;;;;10469888;28;20212;-71
2023/01/08 16:26:14;;;;;;;1.70;1.60;;;9.70;99.90;;;;;;10474179;28;20226;-73
2023/01/08 16:31:15;;;;;;;2.87;1.70;;;9.70;99.90;;;;;;10467168;28;20698;-72
2023/01/08 16:36:15;;;;;;;1.87;1.77;;;9.70;99.90;;;;;;10466335;28;20239;-72
2023/01/08 16:41:19;;;;;;;2.27;1.50;;;9.70;99.90;;;;;;10462714;28;20225;-72
2023/01/08 16:46:19;;;;;;;1.60;1.50;;;9.80;99.90;;;;;;10476110;28;20227;-71
2023/01/08 16:51:20;;;;;;;3.30;1.70;;;9.90;99.90;;;;;;10462041;28;20222;-71
2023/01/08 16:56:21;;;;;;;3.90;1.77;;;9.90;99.90;;;;;;10473727;28;20234;-73
2023/01/08 17:01:21;;;;;;;2.67;1.70;;;10.00;99.90;;;;;;10450197;28;20222;-75
2023/01/08 17:06:22;;;;;;;2.40;1.57;;;10.00;99.90;;;;;;10494885;28;20223;-73
2023/01/08 17:11:23;;;;;;;1.70;1.47;;;10.10;99.90;;;;;;10471667;28;20258;-73
2023/01/08 17:16:23;;;;;;;2.40;1.40;;;10.10;99.90;;;;;;10464879;28;20580;-72
2023/01/08 17:21:24;;;;;;;1.20;1.10;;;10.10;99.90;;;;;;10473478;28;20230;-71
2023/01/08 17:26:25;;;;;;;0.97;0.97;;;10.20;99.90;;;;;;10479853;28;20228;-71
2023/01/08 17:31:25;;;;;;;1.40;1.20;;;10.20;99.90;;;;;;10474310;28;20226;-71
2023/01/08 17:36:26;;;;;;;2.00;1.37;;;10.20;99.90;;;;;;10469711;28;20719;-72
2023/01/08 17:46:46;;;;;;;1.67;1.40;;;10.30;99.90;;;;;;10474320;28;20232;-72
2023/01/08 17:51:47;;;;;;;1.70;1.37;;;10.20;99.90;;;;;;10472148;28;20219;-72
2023/01/08 17:56:47;;;;;;;2.47;1.43;;;10.10;99.90;;;;;;10466660;28;20269;-72
2023/01/08 18:01:51;;;;;;;1.90;1.33;;;9.90;99.90;;;;;;10474388;28;20301;-73
2023/01/08 18:06:54;;;;;;;1.50;1.30;;;9.70;99.90;;;;;;10469596;28;20234;-72
2023/01/08 18:11:55;;;;;;;1.40;1.30;;;9.50;99.90;;;;;;10464961;28;20262;-72
2023/01/08 18:16:56;;;;;;;2.23;2.03;;;9.40;99.90;;;;;;10456069;28;20247;-71
2023/01/08 18:21:57;;;;;;;2.03;1.80;;;9.40;99.90;;;;;;10472251;28;20229;-71
2023/01/08 18:26:57;;;;;;;1.77;1.67;;;9.30;99.90;;;;;;10465436;28;20271;-71
2023/01/08 18:31:59;;;;;;;1.93;1.60;;;9.30;99.90;;;;;;10445542;28;20839;-71
2023/01/08 18:36:59;;;;;;;6.00;2.70;;;9.30;99.90;;;;;;10453107;28;20348;-71
2023/01/08 18:47:20;;;;;;;1.83;1.40;;;9.70;99.90;;;;;;10477343;28;20226;-73
2023/01/08 18:52:21;;;;;;;1.40;1.30;;;9.80;99.90;;;;;;10451778;28;20691;-72
2023/01/08 18:57:22;;;;;;;2.50;1.23;;;9.80;99.90;;;;;;10449207;28;20750;-71
2023/01/08 19:02:29;;;;;;;2.27;1.10;;;9.70;99.90;;;;;;10477043;28;20222;-71
2023/01/08 19:07:31;;;;;;;1.93;1.83;;;9.60;99.90;;;;;;10484284;28;20232;-72
2023/01/08 19:12:31;;;;;;;1.67;1.20;;;9.60;99.90;;;;;;10500469;28;20233;-71
2023/01/08 19:17:32;;;;;;;2.47;1.40;;;9.70;99.90;;;;;;10485391;28;20238;-70
2023/01/08 19:22:32;;;;;;;3.33;2.97;;;9.80;99.90;;;;;;10486523;28;20230;-71
2023/01/08 19:27:34;;;;;;;3.77;2.30;;;9.80;99.90;;;;;;10468685;28;20219;-71
2023/01/08 19:32:35;;;;;;;5.57;2.10;;;9.80;99.90;;;;;;10475215;28;20220;-71
2023/01/08 19:37:37;;;;;;;2.90;1.87;;;9.90;99.90;;;;;;10476538;28;20685;-70
2023/01/08 19:47:57;;;;;;;3.80;3.40;;;9.90;99.90;;;;;;10479040;28;20223;-72
2023/01/08 19:52:58;;;;;;;2.93;2.37;;;9.90;99.90;;;;;;10474151;28;20214;-71
2023/01/08 19:57:59;;;;;;;3.23;2.30;;;10.00;99.90;;;;;;10475855;28;20235;-71
2023/01/08 20:03:00;;;;;;;2.63;2.37;;;10.00;99.90;;;;;;10475230;28;20946;-71
2023/01/08 20:08:00;;;;;;;3.67;2.97;;;10.00;99.90;;;;;;10478517;28;20731;-71
2023/01/08 20:13:01;;;;;;;2.80;1.80;;;9.90;99.90;;;;;;10469786;28;20224;-71
2023/01/08 20:18:01;;;;;;;2.67;1.80;;;9.90;99.90;;;;;;10478361;28;20229;-71
2023/01/08 20:23:02;;;;;;;2.10;1.53;;;9.90;99.90;;;;;;10456857;28;20222;-72
2023/01/08 20:28:03;;;;;;;2.37;1.80;;;9.80;99.90;;;;;;10469536;28;20844;-70
2023/01/08 20:33:03;;;;;;;2.40;1.70;;;9.90;99.90;;;;;;10478278;28;20216;-71
2023/01/08 20:38:04;;;;;;;2.00;1.30;;;9.90;99.90;;;;;;10458473;28;20211;-72
2023/01/08 20:43:04;;;;;;;1.33;1.10;;;10.00;99.90;;;;;;10464587;28;20240;-70
2023/01/08 20:48:05;;;;;;;3.33;1.40;;;10.00;99.90;;;;;;10459787;28;20613;-72
2023/01/08 20:53:06;;;;;;;1.40;1.30;;;10.00;99.90;;;;;;10487235;28;20246;-70
2023/01/08 20:58:06;;;;;;;1.63;1.13;;;10.00;99.90;;;;;;10457112;28;20239;-71
2023/01/08 21:03:07;;;;;;;3.27;1.80;;;10.00;99.90;;;;;;10477104;28;20223;-74
2023/01/08 21:08:08;;;;;;;2.83;2.53;;;10.00;99.90;;;;;;10477101;28;20254;-72
2023/01/08 21:13:09;;;;;;;3.50;2.70;;;10.00;99.90;;;;;;10499585;28;20263;-73
2023/01/08 21:18:09;;;;;;;2.30;2.10;;;10.00;99.90;;;;;;10494528;28;20302;-72
2023/01/08 21:23:10;;;;;;;3.20;2.47;;;10.00;99.90;;;;;;10485936;28;20233;-71
2023/01/08 21:28:10;;;;;;;2.70;2.10;;;10.00;99.90;;;;;;10486073;28;20729;-72
2023/01/08 21:33:11;;;;;;;3.13;2.50;;;10.00;99.90;;;;;;10458385;28;20252;-73
2023/01/08 21:38:12;;;;;;;4.03;2.70;;;10.00;99.90;;;;;;10468543;28;20258;-69
2023/01/08 21:48:31;;;;;;;4.70;2.73;;;10.00;99.90;;;;;;10466795;28;20231;-69
2023/01/08 21:53:32;;;;;;;4.50;3.20;;;10.00;99.90;;;;;;10488975;28;20224;-69
2023/01/08 21:58:33;;;;;;;5.17;2.53;;;10.00;99.90;;;;;;10473463;28;20243;-68
2023/01/08 22:03:34;;;;;;;1.60;1.40;;;10.10;99.90;;;;;;10462518;28;20218;-69
2023/01/08 22:08:34;;;;;;;1.37;1.23;;;10.10;99.90;;;;;;10469122;28;20227;-69
2023/01/08 22:13:37;;;;;;;1.20;1.10;;;10.10;99.90;;;;;;10469182;28;20986;-70
2023/01/08 22:18:37;;;;;;;1.73;1.10;;;10.10;99.90;;;;;;10450395;28;20216;-69
2023/01/08 22:23:38;;;;;;;0.80;0.80;;;10.10;99.90;;;;;;10451725;28;20238;-68
2023/01/08 22:28:39;;;;;;;1.63;1.30;;;10.10;99.90;;;;;;10472663;28;20227;-68
2023/01/08 22:33:39;;;;;;;1.47;1.00;;;10.10;99.90;;;;;;10467386;28;20222;-68
2023/01/08 22:38:40;;;;;;;1.27;1.17;;;10.20;99.90;;;;;;10476510;28;20223;-68
2023/01/08 22:43:40;;;;;;;1.47;1.17;;;10.20;99.90;;;;;;10449660;28;20224;-68
2023/01/08 22:48:42;;;;;;;1.40;1.10;;;10.30;99.90;;;;;;10474256;28;20276;-71
2023/01/08 22:53:43;;;;;;;1.80;1.10;;;10.30;99.90;;;;;;10467309;28;20710;-69
2023/01/08 22:58:44;;;;;;;1.20;1.10;;;10.30;99.90;;;;;;10469941;28;20254;-71
2023/01/08 23:03:52;;;;;;;1.77;1.37;;;10.30;99.90;;;;;;10467184;28;20241;-69
2023/01/08 23:08:54;;;;;;;2.20;1.40;;;10.30;99.90;;;;;;10445705;28;20238;-71
2023/01/08 23:13:55;;;;;;;1.93;1.37;;;10.20;99.90;;;;;;10453619;28;20229;-70
2023/01/08 23:18:56;;;;;;;2.80;1.50;;;10.10;99.90;;;;;;10482297;28;20229;-70
2023/01/08 23:23:57;;;;;;;2.07;1.30;;;10.00;99.90;;;;;;10486524;28;20207;-69
2023/01/08 23:28:57;;;;;;;3.20;1.43;;;9.90;99.90;;;;;;10464716;28;20744;-70
2023/01/08 23:33:59;;;;;;;2.60;1.60;;;9.80;99.90;;;;;;10463449;28;20852;-68
2023/01/08 23:39:00;;;;;;;2.87;1.20;;;9.70;99.90;;;;;;10475882;28;20226;-69
2023/01/08 23:44:06;;;;;;;2.83;1.60;;;9.60;99.90;;;;;;10470969;28;20652;-68
2023/01/08 23:49:07;;;;;;;2.20;1.57;;;9.60;99.90;;;;;;10482227;28;20364;-69
2023/01/08 23:54:09;;;;;;;3.00;2.20;;;9.40;99.90;;;;;;10471179;28;20348;-68
2023/01/08 23:59:10;;;;;;;4.37;2.50;;;9.40;99.90;;;;;;10478363;28;20222;-68
